sensor_id;sensor_type;location;lat;lon;timestamp;temperature;humidity
65985;HTU21D;52748;51.112;5.880;2023-04-01T00:00:57;20.07;68.36
65985;HTU21D;52748;51.112;5.880;2023-04-01T00:03:24;20.07;68.30
65985;HTU21D;52748;51.112;5.880;2023-04-01T00:05:52;20.05;68.26
65985;HTU21D;52748;51.112;5.880;2023-04-01T00:08:18;20.05;68.31
65985;HTU21D;52748;51.112;5.880;2023-04-01T00:10:44;20.04;68.34
65985;HTU21D;52748;51.112;5.880;2023-04-01T00:13:10;20.03;68.36
65985;HTU21D;52748;51.112;5.880;2023-04-01T00:15:36;20.03;68.39
65985;HTU21D;52748;51.112;5.880;2023-04-01T00:18:02;20.03;68.40
65985;HTU21D;52748;51.112;5.880;2023-04-01T00:20:29;20.01;68.37
65985;HTU21D;52748;51.112;5.880;2023-04-01T00:22:54;20.01;68.46
65985;HTU21D;52748;51.112;5.880;2023-04-01T00:25:21;20.00;68.42
65985;HTU21D;52748;51.112;5.880;2023-04-01T00:27:47;20.01;68.32
65985;HTU21D;52748;51.112;5.880;2023-04-01T00:30:15;20.01;68.30
65985;HTU21D;52748;51.112;5.880;2023-04-01T00:32:41;20.01;68.29
65985;HTU21D;52748;51.112;5.880;2023-04-01T00:35:07;20.01;68.07
65985;HTU21D;52748;51.112;5.880;2023-04-01T00:37:35;20.02;68.05
65985;HTU21D;52748;51.112;5.880;2023-04-01T00:40:03;19.99;68.05
65985;HTU21D;52748;51.112;5.880;2023-04-01T00:42:33;19.99;68.08
65985;HTU21D;52748;51.112;5.880;2023-04-01T00:45:30;19.98;68.17
65985;HTU21D;52748;51.112;5.880;2023-04-01T00:48:02;19.99;68.01
65985;HTU21D;52748;51.112;5.880;2023-04-01T00:50:31;19.99;68.00
65985;HTU21D;52748;51.112;5.880;2023-04-01T00:53:01;19.98;68.04
65985;HTU21D;52748;51.112;5.880;2023-04-01T00:55:30;19.99;68.05
65985;HTU21D;52748;51.112;5.880;2023-04-01T00:57:59;19.97;68.11
65985;HTU21D;52748;51.112;5.880;2023-04-01T01:00:27;19.97;68.05
65985;HTU21D;52748;51.112;5.880;2023-04-01T01:02:53;19.96;67.94
65985;HTU21D;52748;51.112;5.880;2023-04-01T01:05:30;19.96;67.91
65985;HTU21D;52748;51.112;5.880;2023-04-01T01:08:17;19.95;67.88
65985;HTU21D;52748;51.112;5.880;2023-04-01T01:10:49;19.96;68.36
65985;HTU21D;52748;51.112;5.880;2023-04-01T01:13:17;19.97;68.24
65985;HTU21D;52748;51.112;5.880;2023-04-01T01:16:08;19.96;68.15
65985;HTU21D;52748;51.112;5.880;2023-04-01T01:19:07;19.95;67.93
65985;HTU21D;52748;51.112;5.880;2023-04-01T01:22:19;19.97;67.65
65985;HTU21D;52748;51.112;5.880;2023-04-01T01:27:32;19.99;67.26
65985;HTU21D;52748;51.112;5.880;2023-04-01T01:30:25;19.97;67.43
65985;HTU21D;52748;51.112;5.880;2023-04-01T01:33:25;19.95;67.64
65985;HTU21D;52748;51.112;5.880;2023-04-01T01:35:59;19.94;67.62
65985;HTU21D;52748;51.112;5.880;2023-04-01T01:38:31;19.92;67.55
65985;HTU21D;52748;51.112;5.880;2023-04-01T01:41:04;19.91;67.55
65985;HTU21D;52748;51.112;5.880;2023-04-01T01:43:37;19.91;67.54
65985;HTU21D;52748;51.112;5.880;2023-04-01T01:46:12;19.90;67.54
65985;HTU21D;52748;51.112;5.880;2023-04-01T01:48:42;19.91;67.39
65985;HTU21D;52748;51.112;5.880;2023-04-01T01:51:09;19.90;67.35
65985;HTU21D;52748;51.112;5.880;2023-04-01T01:53:36;19.94;67.20
65985;HTU21D;52748;51.112;5.880;2023-04-01T01:56:02;19.92;67.17
65985;HTU21D;52748;51.112;5.880;2023-04-01T01:58:59;19.90;67.22
65985;HTU21D;52748;51.112;5.880;2023-04-01T02:01:27;19.92;67.13
65985;HTU21D;52748;51.112;5.880;2023-04-01T02:03:58;19.92;67.03
65985;HTU21D;52748;51.112;5.880;2023-04-01T02:06:30;19.94;66.98
65985;HTU21D;52748;51.112;5.880;2023-04-01T02:09:04;19.95;66.86
65985;HTU21D;52748;51.112;5.880;2023-04-01T02:11:38;19.95;66.82
65985;HTU21D;52748;51.112;5.880;2023-04-01T02:14:14;19.95;66.76
65985;HTU21D;52748;51.112;5.880;2023-04-01T02:16:57;19.95;66.72
65985;HTU21D;52748;51.112;5.880;2023-04-01T02:19:32;19.92;66.66
65985;HTU21D;52748;51.112;5.880;2023-04-01T02:22:02;19.90;66.84
65985;HTU21D;52748;51.112;5.880;2023-04-01T02:24:33;19.89;67.07
65985;HTU21D;52748;51.112;5.880;2023-04-01T02:27:00;19.87;67.15
65985;HTU21D;52748;51.112;5.880;2023-04-01T02:29:27;19.86;67.24
65985;HTU21D;52748;51.112;5.880;2023-04-01T02:31:54;19.85;67.25
65985;HTU21D;52748;51.112;5.880;2023-04-01T02:34:23;19.85;67.22
65985;HTU21D;52748;51.112;5.880;2023-04-01T02:36:50;19.88;67.00
65985;HTU21D;52748;51.112;5.880;2023-04-01T02:39:17;19.86;67.10
65985;HTU21D;52748;51.112;5.880;2023-04-01T02:41:45;19.85;67.21
65985;HTU21D;52748;51.112;5.880;2023-04-01T02:44:13;19.86;67.13
65985;HTU21D;52748;51.112;5.880;2023-04-01T02:46:39;19.87;67.07
65985;HTU21D;52748;51.112;5.880;2023-04-01T02:49:06;19.85;67.12
65985;HTU21D;52748;51.112;5.880;2023-04-01T02:51:32;19.85;67.14
65985;HTU21D;52748;51.112;5.880;2023-04-01T02:53:58;19.85;66.99
65985;HTU21D;52748;51.112;5.880;2023-04-01T02:56:24;19.85;67.07
65985;HTU21D;52748;51.112;5.880;2023-04-01T02:58:52;19.86;66.91
65985;HTU21D;52748;51.112;5.880;2023-04-01T03:01:18;19.86;66.85
65985;HTU21D;52748;51.112;5.880;2023-04-01T03:03:44;19.83;66.98
65985;HTU21D;52748;51.112;5.880;2023-04-01T03:06:12;19.84;67.11
65985;HTU21D;52748;51.112;5.880;2023-04-01T03:08:38;19.82;67.20
65985;HTU21D;52748;51.112;5.880;2023-04-01T03:11:05;19.81;67.15
65985;HTU21D;52748;51.112;5.880;2023-04-01T03:13:34;19.82;67.03
65985;HTU21D;52748;51.112;5.880;2023-04-01T03:15:59;19.80;67.02
65985;HTU21D;52748;51.112;5.880;2023-04-01T03:18:25;19.79;67.05
65985;HTU21D;52748;51.112;5.880;2023-04-01T03:20:51;19.79;67.32
65985;HTU21D;52748;51.112;5.880;2023-04-01T03:23:17;19.79;67.56
65985;HTU21D;52748;51.112;5.880;2023-04-01T03:25:45;19.79;67.49
65985;HTU21D;52748;51.112;5.880;2023-04-01T03:28:12;19.79;67.39
65985;HTU21D;52748;51.112;5.880;2023-04-01T03:30:39;19.79;67.25
65985;HTU21D;52748;51.112;5.880;2023-04-01T03:33:06;19.79;67.17
65985;HTU21D;52748;51.112;5.880;2023-04-01T03:35:32;19.79;67.11
65985;HTU21D;52748;51.112;5.880;2023-04-01T03:37:58;19.80;67.05
65985;HTU21D;52748;51.112;5.880;2023-04-01T03:40:24;19.77;66.94
65985;HTU21D;52748;51.112;5.880;2023-04-01T03:42:52;19.79;66.96
65985;HTU21D;52748;51.112;5.880;2023-04-01T03:45:18;19.77;66.96
65985;HTU21D;52748;51.112;5.880;2023-04-01T03:47:47;19.76;66.97
65985;HTU21D;52748;51.112;5.880;2023-04-01T03:50:12;19.75;66.94
65985;HTU21D;52748;51.112;5.880;2023-04-01T03:52:38;19.75;66.96
65985;HTU21D;52748;51.112;5.880;2023-04-01T03:55:05;19.75;66.98
65985;HTU21D;52748;51.112;5.880;2023-04-01T03:57:31;19.75;67.05
65985;HTU21D;52748;51.112;5.880;2023-04-01T04:00:03;19.75;67.10
65985;HTU21D;52748;51.112;5.880;2023-04-01T04:02:39;19.75;67.06
65985;HTU21D;52748;51.112;5.880;2023-04-01T04:05:05;19.75;66.91
65985;HTU21D;52748;51.112;5.880;2023-04-01T04:07:34;19.75;66.87
65985;HTU21D;52748;51.112;5.880;2023-04-01T04:10:04;19.75;66.87
65985;HTU21D;52748;51.112;5.880;2023-04-01T04:12:30;19.74;66.85
65985;HTU21D;52748;51.112;5.880;2023-04-01T04:14:56;19.74;66.85
65985;HTU21D;52748;51.112;5.880;2023-04-01T04:17:22;19.73;66.86
65985;HTU21D;52748;51.112;5.880;2023-04-01T04:19:48;19.73;66.91
65985;HTU21D;52748;51.112;5.880;2023-04-01T04:22:14;19.72;66.97
65985;HTU21D;52748;51.112;5.880;2023-04-01T04:24:40;19.71;67.01
65985;HTU21D;52748;51.112;5.880;2023-04-01T04:27:09;19.72;66.99
65985;HTU21D;52748;51.112;5.880;2023-04-01T04:29:43;19.74;66.90
65985;HTU21D;52748;51.112;5.880;2023-04-01T04:32:09;19.73;66.84
65985;HTU21D;52748;51.112;5.880;2023-04-01T04:34:35;19.75;66.60
65985;HTU21D;52748;51.112;5.880;2023-04-01T04:37:01;19.75;66.54
65985;HTU21D;52748;51.112;5.880;2023-04-01T04:39:31;19.77;66.50
65985;HTU21D;52748;51.112;5.880;2023-04-01T04:42:00;19.76;66.87
65985;HTU21D;52748;51.112;5.880;2023-04-01T04:44:26;19.75;67.10
65985;HTU21D;52748;51.112;5.880;2023-04-01T04:46:52;19.76;67.55
65985;HTU21D;52748;51.112;5.880;2023-04-01T04:49:18;19.77;67.62
65985;HTU21D;52748;51.112;5.880;2023-04-01T04:51:44;19.77;67.65
65985;HTU21D;52748;51.112;5.880;2023-04-01T04:54:13;19.81;67.43
65985;HTU21D;52748;51.112;5.880;2023-04-01T04:56:56;19.79;67.49
65985;HTU21D;52748;51.112;5.880;2023-04-01T04:59:23;19.79;67.28
65985;HTU21D;52748;51.112;5.880;2023-04-01T05:01:57;19.77;67.04
65985;HTU21D;52748;51.112;5.880;2023-04-01T05:04:23;19.76;67.06
65985;HTU21D;52748;51.112;5.880;2023-04-01T05:06:49;19.76;67.26
65985;HTU21D;52748;51.112;5.880;2023-04-01T05:09:16;19.74;67.23
65985;HTU21D;52748;51.112;5.880;2023-04-01T05:11:42;19.74;67.07
65985;HTU21D;52748;51.112;5.880;2023-04-01T05:14:17;19.76;66.76
65985;HTU21D;52748;51.112;5.880;2023-04-01T05:16:51;19.76;66.62
65985;HTU21D;52748;51.112;5.880;2023-04-01T05:19:17;19.76;66.53
65985;HTU21D;52748;51.112;5.880;2023-04-01T05:21:43;19.76;66.44
65985;HTU21D;52748;51.112;5.880;2023-04-01T05:24:12;19.72;66.68
65985;HTU21D;52748;51.112;5.880;2023-04-01T05:26:38;19.71;66.79
65985;HTU21D;52748;51.112;5.880;2023-04-01T05:29:05;19.69;66.89
65985;HTU21D;52748;51.112;5.880;2023-04-01T05:31:31;19.69;67.03
65985;HTU21D;52748;51.112;5.880;2023-04-01T05:33:58;19.69;66.97
65985;HTU21D;52748;51.112;5.880;2023-04-01T05:36:24;19.70;66.85
65985;HTU21D;52748;51.112;5.880;2023-04-01T05:38:50;19.69;66.78
65985;HTU21D;52748;51.112;5.880;2023-04-01T05:41:18;19.67;66.83
65985;HTU21D;52748;51.112;5.880;2023-04-01T05:43:45;19.68;66.96
65985;HTU21D;52748;51.112;5.880;2023-04-01T05:46:43;19.63;67.03
65985;HTU21D;52748;51.112;5.880;2023-04-01T05:49:35;19.63;67.03
65985;HTU21D;52748;51.112;5.880;2023-04-01T05:52:02;19.61;67.07
65985;HTU21D;52748;51.112;5.880;2023-04-01T05:54:29;19.61;67.05
65985;HTU21D;52748;51.112;5.880;2023-04-01T05:56:55;19.60;67.04
65985;HTU21D;52748;51.112;5.880;2023-04-01T05:59:21;19.61;67.09
65985;HTU21D;52748;51.112;5.880;2023-04-01T06:01:47;19.61;67.00
65985;HTU21D;52748;51.112;5.880;2023-04-01T06:04:15;19.61;66.97
65985;HTU21D;52748;51.112;5.880;2023-04-01T06:06:41;19.60;66.96
65985;HTU21D;52748;51.112;5.880;2023-04-01T06:09:16;19.61;66.89
65985;HTU21D;52748;51.112;5.880;2023-04-01T06:14:50;19.63;67.51
65985;HTU21D;52748;51.112;5.880;2023-04-01T06:17:26;19.66;67.74
65985;HTU21D;52748;51.112;5.880;2023-04-01T06:22:54;19.74;67.84
65985;HTU21D;52748;51.112;5.880;2023-04-01T06:25:53;19.79;67.92
65985;HTU21D;52748;51.112;5.880;2023-04-01T06:34:28;19.88;67.72
65985;HTU21D;52748;51.112;5.880;2023-04-01T06:55:29;19.79;63.08
65985;HTU21D;52748;51.112;5.880;2023-04-01T07:00:54;19.74;62.63
65985;HTU21D;52748;51.112;5.880;2023-04-01T07:03:54;19.71;62.56
65985;HTU21D;52748;51.112;5.880;2023-04-01T07:08:59;19.66;62.52
65985;HTU21D;52748;51.112;5.880;2023-04-01T07:11:38;19.63;62.42
65985;HTU21D;52748;51.112;5.880;2023-04-01T07:14:32;19.62;63.11
65985;HTU21D;52748;51.112;5.880;2023-04-01T07:19:47;19.58;63.91
65985;HTU21D;52748;51.112;5.880;2023-04-01T07:22:42;19.60;64.15
65985;HTU21D;52748;51.112;5.880;2023-04-01T07:25:30;19.58;64.10
65985;HTU21D;52748;51.112;5.880;2023-04-01T07:28:19;19.58;64.22
65985;HTU21D;52748;51.112;5.880;2023-04-01T07:39:06;19.59;65.09
65985;HTU21D;52748;51.112;5.880;2023-04-01T07:41:59;19.57;64.72
65985;HTU21D;52748;51.112;5.880;2023-04-01T07:44:50;19.58;64.56
65985;HTU21D;52748;51.112;5.880;2023-04-01T07:52:55;19.57;64.81
65985;HTU21D;52748;51.112;5.880;2023-04-01T07:55:32;19.56;64.84
65985;HTU21D;52748;51.112;5.880;2023-04-01T08:00:48;19.53;64.88
65985;HTU21D;52748;51.112;5.880;2023-04-01T08:12:37;19.48;66.16
65985;HTU21D;52748;51.112;5.880;2023-04-01T08:16:08;19.47;66.39
65985;HTU21D;52748;51.112;5.880;2023-04-01T08:18:40;19.45;66.23
65985;HTU21D;52748;51.112;5.880;2023-04-01T08:21:39;19.45;65.76
65985;HTU21D;52748;51.112;5.880;2023-04-01T08:26:53;19.45;65.30
65985;HTU21D;52748;51.112;5.880;2023-04-01T08:29:32;19.44;64.90
65985;HTU21D;52748;51.112;5.880;2023-04-01T08:32:18;19.46;64.74
65985;HTU21D;52748;51.112;5.880;2023-04-01T08:34:55;19.47;65.04
65985;HTU21D;52748;51.112;5.880;2023-04-01T08:37:36;19.46;65.82
65985;HTU21D;52748;51.112;5.880;2023-04-01T08:43:20;19.45;66.79
65985;HTU21D;52748;51.112;5.880;2023-04-01T08:54:38;19.45;68.34
65985;HTU21D;52748;51.112;5.880;2023-04-01T09:00:53;19.39;67.30
65985;HTU21D;52748;51.112;5.880;2023-04-01T09:03:45;19.31;66.92
65985;HTU21D;52748;51.112;5.880;2023-04-01T09:06:28;19.22;66.48
65985;HTU21D;52748;51.112;5.880;2023-04-01T09:35:23;19.63;70.51
65985;HTU21D;52748;51.112;5.880;2023-04-01T09:38:00;19.70;70.41
65985;HTU21D;52748;51.112;5.880;2023-04-01T09:43:54;19.85;70.17
65985;HTU21D;52748;51.112;5.880;2023-04-01T09:46:43;19.95;70.03
65985;HTU21D;52748;51.112;5.880;2023-04-01T09:52:10;20.10;70.12
65985;HTU21D;52748;51.112;5.880;2023-04-01T10:00:53;20.37;69.33
65985;HTU21D;52748;51.112;5.880;2023-04-01T10:10:00;20.65;68.75
65985;HTU21D;52748;51.112;5.880;2023-04-01T10:12:56;20.71;67.95
65985;HTU21D;52748;51.112;5.880;2023-04-01T10:18:29;20.71;67.49
65985;HTU21D;52748;51.112;5.880;2023-04-01T10:27:01;20.69;68.07
65985;HTU21D;52748;51.112;5.880;2023-04-01T10:38:37;20.71;66.91
65985;HTU21D;52748;51.112;5.880;2023-04-01T10:41:36;20.71;66.64
65985;HTU21D;52748;51.112;5.880;2023-04-01T10:47:13;20.63;66.13
65985;HTU21D;52748;51.112;5.880;2023-04-01T10:56:06;20.56;65.88
65985;HTU21D;52748;51.112;5.880;2023-04-01T11:22:39;20.19;64.17
65985;HTU21D;52748;51.112;5.880;2023-04-01T11:25:36;20.12;64.73
65985;HTU21D;52748;51.112;5.880;2023-04-01T11:31:33;20.00;65.50
65985;HTU21D;52748;51.112;5.880;2023-04-01T11:40:03;19.75;65.63
65985;HTU21D;52748;51.112;5.880;2023-04-01T11:43:21;19.66;64.74
65985;HTU21D;52748;51.112;5.880;2023-04-01T11:49:38;19.40;64.14
65985;HTU21D;52748;51.112;5.880;2023-04-01T12:20:55;19.81;68.38
65985;HTU21D;52748;51.112;5.880;2023-04-01T12:32:12;19.98;67.90
65985;HTU21D;52748;51.112;5.880;2023-04-01T12:35:14;20.01;67.78
65985;HTU21D;52748;51.112;5.880;2023-04-01T12:40:51;20.05;67.61
65985;HTU21D;52748;51.112;5.880;2023-04-01T12:46:32;20.11;67.43
65985;HTU21D;52748;51.112;5.880;2023-04-01T13:00:17;20.14;67.18
65985;HTU21D;52748;51.112;5.880;2023-04-01T13:23:08;20.05;66.79
65985;HTU21D;52748;51.112;5.880;2023-04-01T13:26:13;20.03;66.76
65985;HTU21D;52748;51.112;5.880;2023-04-01T13:37:50;19.97;66.24
65985;HTU21D;52748;51.112;5.880;2023-04-01T13:43:43;19.94;66.49
65985;HTU21D;52748;51.112;5.880;2023-04-01T13:46:27;19.92;66.71
65985;HTU21D;52748;51.112;5.880;2023-04-01T13:52:02;19.90;66.93
65985;HTU21D;52748;51.112;5.880;2023-04-01T14:06:02;19.89;67.20
65985;HTU21D;52748;51.112;5.880;2023-04-01T14:11:33;19.89;67.05
65985;HTU21D;52748;51.112;5.880;2023-04-01T14:14:42;19.90;67.10
65985;HTU21D;52748;51.112;5.880;2023-04-01T14:22:38;19.94;66.66
65985;HTU21D;52748;51.112;5.880;2023-04-01T14:31:00;19.92;67.04
65985;HTU21D;52748;51.112;5.880;2023-04-01T14:34:15;19.94;66.94
65985;HTU21D;52748;51.112;5.880;2023-04-01T14:37:03;19.95;67.37
65985;HTU21D;52748;51.112;5.880;2023-04-01T14:45:42;19.97;68.04
65985;HTU21D;52748;51.112;5.880;2023-04-01T14:48:49;19.99;67.59
65985;HTU21D;52748;51.112;5.880;2023-04-01T14:56:41;19.98;67.44
65985;HTU21D;52748;51.112;5.880;2023-04-01T15:02:03;19.96;66.10
65985;HTU21D;52748;51.112;5.880;2023-04-01T15:08:03;19.97;67.76
65985;HTU21D;52748;51.112;5.880;2023-04-01T15:13:13;19.97;67.67
65985;HTU21D;52748;51.112;5.880;2023-04-01T15:29:47;20.02;69.16
65985;HTU21D;52748;51.112;5.880;2023-04-01T15:35:14;20.03;70.15
65985;HTU21D;52748;51.112;5.880;2023-04-01T15:38:06;20.02;69.35
65985;HTU21D;52748;51.112;5.880;2023-04-01T15:46:13;19.98;69.21
65985;HTU21D;52748;51.112;5.880;2023-04-01T15:57:45;19.92;71.80
65985;HTU21D;52748;51.112;5.880;2023-04-01T16:00:29;19.91;71.76
65985;HTU21D;52748;51.112;5.880;2023-04-01T16:09:12;19.90;71.47
65985;HTU21D;52748;51.112;5.880;2023-04-01T16:20:46;19.87;70.33
65985;HTU21D;52748;51.112;5.880;2023-04-01T16:25:59;19.86;67.45
65985;HTU21D;52748;51.112;5.880;2023-04-01T16:34:18;19.81;68.14
65985;HTU21D;52748;51.112;5.880;2023-04-01T16:40:15;19.74;69.12
65985;HTU21D;52748;51.112;5.880;2023-04-01T16:45:42;19.73;68.99
65985;HTU21D;52748;51.112;5.880;2023-04-01T16:48:15;19.72;69.43
65985;HTU21D;52748;51.112;5.880;2023-04-01T16:50:59;19.75;69.47
65985;HTU21D;52748;51.112;5.880;2023-04-01T16:53:49;19.80;70.29
65985;HTU21D;52748;51.112;5.880;2023-04-01T16:56:35;19.80;70.58
65985;HTU21D;52748;51.112;5.880;2023-04-01T17:02:18;19.89;71.24
65985;HTU21D;52748;51.112;5.880;2023-04-01T17:08:06;20.02;72.14
65985;HTU21D;52748;51.112;5.880;2023-04-01T17:13:18;20.24;72.00
65985;HTU21D;52748;51.112;5.880;2023-04-01T17:19:05;20.47;71.13
65985;HTU21D;52748;51.112;5.880;2023-04-01T17:21:44;20.56;70.94
65985;HTU21D;52748;51.112;5.880;2023-04-01T17:32:53;20.87;69.81
65985;HTU21D;52748;51.112;5.880;2023-04-01T17:35:22;20.92;69.69
65985;HTU21D;52748;51.112;5.880;2023-04-01T17:46:51;21.20;68.94
65985;HTU21D;52748;51.112;5.880;2023-04-01T17:57:59;21.33;68.61
65985;HTU21D;52748;51.112;5.880;2023-04-01T18:00:32;21.34;68.59
65985;HTU21D;52748;51.112;5.880;2023-04-01T18:06:01;21.34;68.65
65985;HTU21D;52748;51.112;5.880;2023-04-01T18:08:53;21.34;68.71
65985;HTU21D;52748;51.112;5.880;2023-04-01T18:15:18;21.35;68.83
65985;HTU21D;52748;51.112;5.880;2023-04-01T18:23:27;21.38;69.29
65985;HTU21D;52748;51.112;5.880;2023-04-01T18:26:06;21.37;69.32
65985;HTU21D;52748;51.112;5.880;2023-04-01T18:28:40;21.40;69.26
65985;HTU21D;52748;51.112;5.880;2023-04-01T18:31:14;21.42;69.02
65985;HTU21D;52748;51.112;5.880;2023-04-01T18:34:27;21.47;69.11
65985;HTU21D;52748;51.112;5.880;2023-04-01T18:37:02;21.50;70.33
65985;HTU21D;52748;51.112;5.880;2023-04-01T18:39:50;21.49;71.13
65985;HTU21D;52748;51.112;5.880;2023-04-01T18:42:33;21.51;71.74
65985;HTU21D;52748;51.112;5.880;2023-04-01T18:45:45;21.52;71.98
65985;HTU21D;52748;51.112;5.880;2023-04-01T18:48:15;21.52;72.01
65985;HTU21D;52748;51.112;5.880;2023-04-01T18:51:10;21.58;71.76
65985;HTU21D;52748;51.112;5.880;2023-04-01T18:53:44;21.53;71.77
65985;HTU21D;52748;51.112;5.880;2023-04-01T18:56:34;21.52;71.71
65985;HTU21D;52748;51.112;5.880;2023-04-01T18:59:20;21.51;71.60
65985;HTU21D;52748;51.112;5.880;2023-04-01T19:05:12;21.49;71.42
65985;HTU21D;52748;51.112;5.880;2023-04-01T19:08:48;21.47;71.29
65985;HTU21D;52748;51.112;5.880;2023-04-01T19:17:06;21.40;70.84
65985;HTU21D;52748;51.112;5.880;2023-04-01T19:19:56;21.38;70.73
65985;HTU21D;52748;51.112;5.880;2023-04-01T19:43:03;21.16;70.84
65985;HTU21D;52748;51.112;5.880;2023-04-01T19:48:58;21.14;70.64
65985;HTU21D;52748;51.112;5.880;2023-04-01T19:52:03;21.13;70.65
65985;HTU21D;52748;51.112;5.880;2023-04-01T20:14:30;20.92;70.19
65985;HTU21D;52748;51.112;5.880;2023-04-01T20:19:41;20.87;70.16
65985;HTU21D;52748;51.112;5.880;2023-04-01T20:28:58;20.81;69.96
65985;HTU21D;52748;51.112;5.880;2023-04-01T20:31:07;20.80;69.89
65985;HTU21D;52748;51.112;5.880;2023-04-01T20:36:26;20.79;69.49
65985;HTU21D;52748;51.112;5.880;2023-04-01T20:50:23;20.75;68.75
65985;HTU21D;52748;51.112;5.880;2023-04-01T20:53:01;20.75;68.55
65985;HTU21D;52748;51.112;5.880;2023-04-01T20:56:06;20.70;68.70
65985;HTU21D;52748;51.112;5.880;2023-04-01T21:01:54;20.64;68.84
65985;HTU21D;52748;51.112;5.880;2023-04-01T21:07:38;20.61;68.81
65985;HTU21D;52748;51.112;5.880;2023-04-01T21:32:25;20.53;68.05
65985;HTU21D;52748;51.112;5.880;2023-04-01T21:35:25;20.51;68.02
65985;HTU21D;52748;51.112;5.880;2023-04-01T21:47:12;20.45;67.79
65985;HTU21D;52748;51.112;5.880;2023-04-01T22:00:42;20.42;67.52
65985;HTU21D;52748;51.112;5.880;2023-04-01T22:03:35;20.43;67.34
65985;HTU21D;52748;51.112;5.880;2023-04-01T22:08:57;20.42;67.08
65985;HTU21D;52748;51.112;5.880;2023-04-01T22:11:46;20.41;67.07
65985;HTU21D;52748;51.112;5.880;2023-04-01T22:22:52;20.37;66.79
65985;HTU21D;52748;51.112;5.880;2023-04-01T22:28:31;20.33;66.56
65985;HTU21D;52748;51.112;5.880;2023-04-01T22:31:01;20.32;66.59
65985;HTU21D;52748;51.112;5.880;2023-04-01T22:33:46;20.32;66.40
65985;HTU21D;52748;51.112;5.880;2023-04-01T22:39:18;20.30;66.29
65985;HTU21D;52748;51.112;5.880;2023-04-01T22:45:05;20.28;66.27
65985;HTU21D;52748;51.112;5.880;2023-04-01T22:50:22;20.30;65.74
65985;HTU21D;52748;51.112;5.880;2023-04-01T22:56:07;20.27;65.48
65985;HTU21D;52748;51.112;5.880;2023-04-01T22:58:43;20.26;65.21
65985;HTU21D;52748;51.112;5.880;2023-04-01T23:01:21;20.24;65.04
65985;HTU21D;52748;51.112;5.880;2023-04-01T23:03:51;20.25;64.96
65985;HTU21D;52748;51.112;5.880;2023-04-01T23:06:27;20.22;64.81
65985;HTU21D;52748;51.112;5.880;2023-04-01T23:11:58;20.22;64.59
65985;HTU21D;52748;51.112;5.880;2023-04-01T23:14:46;20.24;64.50
65985;HTU21D;52748;51.112;5.880;2023-04-01T23:20:27;20.21;64.05
65985;HTU21D;52748;51.112;5.880;2023-04-01T23:23:23;20.18;64.20
65985;HTU21D;52748;51.112;5.880;2023-04-01T23:26:23;20.18;64.27
65985;HTU21D;52748;51.112;5.880;2023-04-01T23:28:54;20.16;64.26
65985;HTU21D;52748;51.112;5.880;2023-04-01T23:33:59;20.14;64.33
65985;HTU21D;52748;51.112;5.880;2023-04-01T23:36:28;20.13;64.30
65985;HTU21D;52748;51.112;5.880;2023-04-01T23:38:55;20.12;64.12
65985;HTU21D;52748;51.112;5.880;2023-04-01T23:41:32;20.13;63.85
65985;HTU21D;52748;51.112;5.880;2023-04-01T23:44:07;20.11;63.91
65985;HTU21D;52748;51.112;5.880;2023-04-01T23:46:37;20.11;63.77
65985;HTU21D;52748;51.112;5.880;2023-04-01T23:49:13;20.10;63.72
65985;HTU21D;52748;51.112;5.880;2023-04-01T23:51:59;20.10;63.80
65985;HTU21D;52748;51.112;5.880;2023-04-01T23:54:33;20.07;63.69
65985;HTU21D;52748;51.112;5.880;2023-04-01T23:57:12;20.07;63.52
65985;HTU21D;52748;51.112;5.880;2023-04-01T23:59:39;20.10;63.46
